createdAt,value
2019-05-05T00:00:57.987Z,13.37
2019-05-05T00:03:36.038Z,7.60
2019-05-05T00:06:07.352Z,5.70
2019-05-05T00:08:37.086Z,10.00
2019-05-05T00:11:26.573Z,5.73
2019-05-05T00:13:57.780Z,7.77
2019-05-05T00:16:35.147Z,10.20
2019-05-05T00:19:04.917Z,8.00
2019-05-05T00:21:34.484Z,7.77
2019-05-05T00:24:04.626Z,12.10
2019-05-05T00:26:34.960Z,7.60
2019-05-05T00:29:05.704Z,9.57
2019-05-05T00:31:36.432Z,6.13
2019-05-05T00:34:06.032Z,6.23
2019-05-05T00:36:35.822Z,7.13
2019-05-05T00:39:08.385Z,9.90
2019-05-05T00:41:37.941Z,9.33
2019-05-05T00:44:07.500Z,8.47
2019-05-05T00:46:38.604Z,6.80
2019-05-05T00:49:08.161Z,7.97
2019-05-05T00:51:37.733Z,10.43
2019-05-05T00:54:07.268Z,7.03
2019-05-05T00:56:36.953Z,6.43
2019-05-05T00:59:08.187Z,9.93
2019-05-05T01:01:55.287Z,10.83
2019-05-05T01:04:26.595Z,9.23
2019-05-05T01:06:56.286Z,7.57
2019-05-05T01:09:27.758Z,9.53
2019-05-05T01:11:57.643Z,6.73
2019-05-05T01:14:27.198Z,6.83
2019-05-05T01:16:56.829Z,9.13
2019-05-05T01:19:26.317Z,8.03
2019-05-05T01:21:56.034Z,6.83
2019-05-05T01:24:25.911Z,8.67
2019-05-05T01:26:55.566Z,9.37
2019-05-05T01:29:25.386Z,9.57
2019-05-05T01:31:58.139Z,7.67
2019-05-05T01:34:30.463Z,9.07
2019-05-05T01:37:01.677Z,10.03
2019-05-05T01:39:34.546Z,11.00
2019-05-05T01:42:06.081Z,8.33
2019-05-05T01:44:35.752Z,10.73
2019-05-05T01:47:05.467Z,12.47
2019-05-05T01:49:35.050Z,10.97
2019-05-05T01:52:04.657Z,12.03
2019-05-05T01:54:35.313Z,9.80
2019-05-05T01:57:05.956Z,10.27
2019-05-05T01:59:36.122Z,10.63
2019-05-05T02:02:06.600Z,9.67
2019-05-05T02:04:37.545Z,10.90
2019-05-05T02:07:07.412Z,11.93
2019-05-05T02:09:37.053Z,13.63
2019-05-05T02:12:06.745Z,11.43
2019-05-05T02:14:36.448Z,10.13
2019-05-05T02:17:06.014Z,14.83
2019-05-05T02:19:35.584Z,15.67
2019-05-05T02:22:05.509Z,11.37
2019-05-05T02:24:35.482Z,11.00
2019-05-05T02:27:05.404Z,11.70
2019-05-05T02:29:36.677Z,11.37
2019-05-05T02:32:25.753Z,12.57
2019-05-05T02:35:00.324Z,10.93
2019-05-05T02:37:29.890Z,12.07
2019-05-05T02:40:06.345Z,13.17
2019-05-05T02:42:31.887Z,10.10
2019-05-05T02:45:05.704Z,12.87
2019-05-05T02:47:56.584Z,14.20
2019-05-05T02:50:46.712Z,12.27
2019-05-05T02:53:04.054Z,8.73
2019-05-05T02:55:34.990Z,11.47
2019-05-05T02:58:04.680Z,14.63
2019-05-05T03:00:36.005Z,11.80
2019-05-05T03:03:07.272Z,11.77
2019-05-05T03:05:36.941Z,10.83
2019-05-05T03:08:08.268Z,11.10
2019-05-05T03:10:39.034Z,11.67
2019-05-05T03:13:08.793Z,11.43
2019-05-05T03:15:47.083Z,10.90
2019-05-05T03:18:16.672Z,10.90
2019-05-05T03:20:46.288Z,11.63
2019-05-05T03:23:15.897Z,13.57
2019-05-05T03:25:46.161Z,12.27
2019-05-05T03:28:15.714Z,13.03
2019-05-05T03:30:45.793Z,11.03
2019-05-05T03:33:16.446Z,9.67
2019-05-05T03:35:46.330Z,11.10
2019-05-05T03:38:16.895Z,11.40
2019-05-05T03:40:48.127Z,12.13
2019-05-05T03:43:31.503Z,13.13
2019-05-05T03:46:04.409Z,13.13
2019-05-05T03:48:34.704Z,10.23
2019-05-05T03:51:16.047Z,15.33
2019-05-05T03:53:36.345Z,11.23
2019-05-05T03:56:06.040Z,11.73
2019-05-05T03:58:35.598Z,11.87
2019-05-05T04:01:27.878Z,11.13
2019-05-05T04:04:16.464Z,13.60
2019-05-05T04:06:47.101Z,13.10
2019-05-05T04:09:16.663Z,10.27
2019-05-05T04:11:46.423Z,10.17
2019-05-05T04:14:18.390Z,12.27
2019-05-05T04:17:01.134Z,12.40
2019-05-05T04:19:37.946Z,12.00
2019-05-05T04:22:07.510Z,9.97
2019-05-05T04:24:37.079Z,11.27
2019-05-05T04:27:06.672Z,10.43
2019-05-05T04:29:36.287Z,13.53
2019-05-05T04:32:05.775Z,9.93
2019-05-05T04:34:35.228Z,16.33
2019-05-05T04:37:04.840Z,11.27
2019-05-05T04:39:36.284Z,11.40
2019-05-05T04:42:05.840Z,8.30
2019-05-05T04:44:35.501Z,12.57
2019-05-05T04:47:15.752Z,9.60
2019-05-05T04:49:47.428Z,11.77
2019-05-05T04:52:24.626Z,14.47
2019-05-05T04:54:55.796Z,14.87
2019-05-05T04:57:25.764Z,11.10
2019-05-05T04:59:55.294Z,11.17
2019-05-05T05:02:38.363Z,13.07
2019-05-05T05:05:25.009Z,12.70
2019-05-05T05:07:57.694Z,14.03
2019-05-05T05:10:25.921Z,13.93
2019-05-05T05:12:55.412Z,14.27
2019-05-05T05:15:36.632Z,13.67
2019-05-05T05:18:17.611Z,14.23
2019-05-05T05:20:55.224Z,10.80
2019-05-05T05:23:36.443Z,10.87
2019-05-05T05:26:06.092Z,16.67
2019-05-05T05:28:38.531Z,12.47
2019-05-05T05:31:24.343Z,8.10
2019-05-05T05:33:52.114Z,11.33
2019-05-05T05:36:24.764Z,12.47
2019-05-05T05:38:56.160Z,8.87
2019-05-05T05:41:45.173Z,12.47
2019-05-05T05:44:28.088Z,11.10
2019-05-05T05:47:14.112Z,10.53
2019-05-05T05:49:48.424Z,11.33
2019-05-05T05:52:19.275Z,10.93
2019-05-05T05:54:49.105Z,9.67
2019-05-05T05:57:18.662Z,11.07
2019-05-05T05:59:48.334Z,11.50
2019-05-05T06:02:18.004Z,9.87
2019-05-05T06:04:47.574Z,11.63
2019-05-05T06:07:17.134Z,16.07
2019-05-05T06:09:48.257Z,10.50
2019-05-05T06:12:17.769Z,11.17
2019-05-05T06:14:54.413Z,9.70
2019-05-05T06:17:23.981Z,12.07
2019-05-05T06:20:21.463Z,14.87
2019-05-05T06:22:32.217Z,12.07
2019-05-05T06:25:06.157Z,10.13
2019-05-05T06:27:34.446Z,9.27
2019-05-05T06:30:05.278Z,8.80
2019-05-05T06:32:34.771Z,11.00
2019-05-05T06:35:05.061Z,9.93
2019-05-05T06:37:34.819Z,5.87
2019-05-05T06:40:08.051Z,7.80
2019-05-05T06:42:39.180Z,8.77
2019-05-05T06:45:10.502Z,8.13
2019-05-05T06:47:41.563Z,10.80
2019-05-05T06:50:11.476Z,8.93
2019-05-05T06:52:44.465Z,10.23
2019-05-05T06:55:14.091Z,12.70
2019-05-05T06:57:44.415Z,10.77
2019-05-05T07:00:14.532Z,15.00
2019-05-05T07:02:44.531Z,8.50
2019-05-05T07:05:14.414Z,10.77
2019-05-05T07:07:43.984Z,7.90
2019-05-05T07:10:16.684Z,8.93
2019-05-05T07:12:46.337Z,9.97
2019-05-05T07:15:15.995Z,8.33
2019-05-05T07:17:45.605Z,7.80
2019-05-05T07:20:15.368Z,10.53
2019-05-05T07:22:58.372Z,8.97
2019-05-05T07:25:16.220Z,7.57
2019-05-05T07:27:46.068Z,7.47
2019-05-05T07:30:15.673Z,9.53
2019-05-05T07:32:45.279Z,11.23
2019-05-05T07:35:24.600Z,7.00
2019-05-05T07:37:54.332Z,9.70
2019-05-05T07:40:24.173Z,12.03
2019-05-05T07:42:54.078Z,7.43
2019-05-05T07:45:25.886Z,11.30
2019-05-05T07:47:55.055Z,9.53
2019-05-05T07:50:29.555Z,7.30
2019-05-05T07:52:55.844Z,10.80
2019-05-05T07:55:25.338Z,9.27
2019-05-05T07:57:54.819Z,8.73
2019-05-05T08:00:24.454Z,8.93
2019-05-05T08:02:54.501Z,11.37
2019-05-05T08:05:24.683Z,9.97
2019-05-05T08:07:54.354Z,10.37
2019-05-05T08:10:24.227Z,10.00
2019-05-05T08:12:54.318Z,12.70
2019-05-05T08:15:25.559Z,12.17
2019-05-05T08:17:56.762Z,11.00
2019-05-05T08:20:34.048Z,7.90
2019-05-05T08:23:04.615Z,11.93
2019-05-05T08:25:40.379Z,10.30
2019-05-05T08:28:27.701Z,10.03
2019-05-05T08:30:58.932Z,11.07
2019-05-05T08:33:28.411Z,9.23
2019-05-05T08:35:57.903Z,8.77
2019-05-05T08:38:27.620Z,8.17
2019-05-05T08:40:57.113Z,18.23
2019-05-05T08:43:26.834Z,10.13
2019-05-05T08:45:56.567Z,8.47
2019-05-05T08:48:26.120Z,7.83
2019-05-05T08:50:55.678Z,9.17
2019-05-05T08:53:25.180Z,9.37
2019-05-05T08:55:54.759Z,10.93
2019-05-05T08:58:24.349Z,8.93
2019-05-05T09:00:54.061Z,9.37
2019-05-05T09:03:24.297Z,10.17
2019-05-05T09:05:54.298Z,10.67
2019-05-05T09:08:24.267Z,11.03
2019-05-05T09:10:55.210Z,7.40
2019-05-05T09:13:25.007Z,8.87
2019-05-05T09:15:54.578Z,8.27
2019-05-05T09:18:24.682Z,9.20
2019-05-05T09:20:54.458Z,9.50
2019-05-05T09:23:24.181Z,7.30
2019-05-05T09:25:55.316Z,11.07
2019-05-05T09:28:34.145Z,8.73
2019-05-05T09:31:04.261Z,10.37
2019-05-05T09:33:33.997Z,10.07
2019-05-05T09:36:04.672Z,10.37
2019-05-05T09:38:36.000Z,8.23
2019-05-05T09:41:05.557Z,9.10
2019-05-05T09:43:35.219Z,11.97
2019-05-05T09:46:04.854Z,8.70
2019-05-05T09:48:34.417Z,10.00
2019-05-05T09:51:04.461Z,11.60
2019-05-05T09:53:34.636Z,12.33
2019-05-05T09:56:04.284Z,8.53
2019-05-05T09:58:34.783Z,8.57
2019-05-05T10:01:06.522Z,6.30
2019-05-05T10:03:36.260Z,5.47
2019-05-05T10:06:05.861Z,8.53
2019-05-05T10:08:35.736Z,6.43
2019-05-05T10:11:05.309Z,9.37
2019-05-05T10:13:34.780Z,11.87
2019-05-05T10:16:05.773Z,7.33
2019-05-05T10:18:35.988Z,14.43
2019-05-05T10:21:05.944Z,14.00
2019-05-05T10:23:37.025Z,8.87
2019-05-05T10:26:11.182Z,8.90
2019-05-05T10:28:40.882Z,10.43
2019-05-05T10:31:10.478Z,8.77
2019-05-05T10:33:41.750Z,10.73
2019-05-05T10:36:11.464Z,11.97
2019-05-05T10:38:44.469Z,11.10
2019-05-05T10:41:14.344Z,9.67
2019-05-05T10:43:43.989Z,9.47
2019-05-05T10:46:14.348Z,8.37
2019-05-05T10:48:44.603Z,7.20
2019-05-05T10:51:14.154Z,8.70
2019-05-05T10:53:43.996Z,9.90
2019-05-05T10:56:15.125Z,10.70
2019-05-05T10:58:46.353Z,9.83
2019-05-05T11:01:27.999Z,8.47
2019-05-05T11:03:59.948Z,9.67
2019-05-05T11:06:31.000Z,9.43
2019-05-05T11:09:01.415Z,9.57
2019-05-05T11:11:34.393Z,7.10
2019-05-05T11:14:04.614Z,10.30
2019-05-05T11:16:35.085Z,10.83
2019-05-05T11:19:07.879Z,9.70
2019-05-05T11:21:37.521Z,9.40
2019-05-05T11:24:08.721Z,24.30
2019-05-05T11:26:38.338Z,13.37
2019-05-05T11:29:07.895Z,16.77
2019-05-05T11:31:37.401Z,15.80
2019-05-05T11:34:09.039Z,9.93
2019-05-05T11:36:54.270Z,10.30
2019-05-05T11:39:23.610Z,9.53
2019-05-05T11:41:54.800Z,11.67
2019-05-05T11:44:24.525Z,10.80
2019-05-05T11:46:55.164Z,13.60
2019-05-05T11:49:24.720Z,14.03
2019-05-05T11:51:54.421Z,11.40
2019-05-05T11:54:24.690Z,11.73
2019-05-05T11:56:55.431Z,15.07
2019-05-05T11:59:25.433Z,12.97
2019-05-05T12:01:55.287Z,13.37
2019-05-05T12:04:25.775Z,12.37
2019-05-05T12:06:56.136Z,18.77
2019-05-05T12:09:27.482Z,12.23
2019-05-05T12:11:57.167Z,10.50
2019-05-05T12:14:28.390Z,12.57
2019-05-05T12:16:58.951Z,12.37
2019-05-05T12:19:28.520Z,12.57
2019-05-05T12:21:58.964Z,13.23
2019-05-05T12:24:30.089Z,15.20
2019-05-05T12:27:16.542Z,13.93
2019-05-05T12:29:47.305Z,14.93
2019-05-05T12:32:16.842Z,13.60
2019-05-05T12:34:46.546Z,11.33
2019-05-05T12:37:16.254Z,10.70
2019-05-05T12:39:46.084Z,11.87
2019-05-05T12:42:15.708Z,12.43
2019-05-05T12:44:47.027Z,11.77
2019-05-05T12:47:18.391Z,14.40
2019-05-05T12:49:47.995Z,12.40
2019-05-05T12:52:17.521Z,9.80
2019-05-05T12:54:46.953Z,11.33
2019-05-05T12:57:16.734Z,14.73
2019-05-05T12:59:46.177Z,14.23
2019-05-05T13:02:15.962Z,12.27
2019-05-05T13:04:45.621Z,15.47
2019-05-05T13:07:15.140Z,16.80
2019-05-05T13:09:44.709Z,18.07
2019-05-05T13:12:14.999Z,17.40
2019-05-05T13:14:44.867Z,12.57
2019-05-05T13:17:14.730Z,16.70
2019-05-05T13:19:45.870Z,16.67
2019-05-05T13:22:26.475Z,15.87
2019-05-05T13:24:57.609Z,14.47
2019-05-05T13:27:34.092Z,11.27
2019-05-05T13:30:04.393Z,10.03
2019-05-05T13:32:34.070Z,13.70
2019-05-05T13:35:04.615Z,19.90
2019-05-05T13:37:34.178Z,17.90
2019-05-05T13:40:05.019Z,18.63
2019-05-05T13:42:34.645Z,15.57
2019-05-05T13:45:27.238Z,20.70
2019-05-05T13:47:56.787Z,24.27
2019-05-05T13:50:28.019Z,14.27
2019-05-05T13:52:57.576Z,30.33
2019-05-05T13:55:27.142Z,20.97
2019-05-05T13:57:56.817Z,20.23
2019-05-05T14:00:26.855Z,18.57
2019-05-05T14:02:56.617Z,18.13
2019-05-05T14:05:26.249Z,13.90
2019-05-05T14:07:56.081Z,19.63
2019-05-05T14:10:25.717Z,18.43
2019-05-05T14:12:55.681Z,17.70
2019-05-05T14:15:25.556Z,10.43
2019-05-05T14:17:55.276Z,16.93
2019-05-05T14:20:24.880Z,20.07
2019-05-05T14:22:54.972Z,15.77
2019-05-05T14:25:26.379Z,15.20
2019-05-05T14:27:56.042Z,18.17
2019-05-05T14:30:30.727Z,16.80
2019-05-05T14:33:00.855Z,19.43
2019-05-05T14:35:34.105Z,10.57
2019-05-05T14:38:14.581Z,18.90
2019-05-05T14:40:44.597Z,17.50
2019-05-05T14:43:16.768Z,16.93
2019-05-05T14:45:45.673Z,16.33
2019-05-05T14:48:15.303Z,19.70
2019-05-05T14:50:45.255Z,18.57
2019-05-05T14:53:14.825Z,15.67
2019-05-05T14:55:45.534Z,14.77
2019-05-05T14:58:15.041Z,18.00
2019-05-05T15:00:44.675Z,19.70
2019-05-05T15:03:14.233Z,15.83
2019-05-05T15:05:51.223Z,14.37
2019-05-05T15:08:25.152Z,22.17
2019-05-05T15:11:03.657Z,17.07
2019-05-05T15:13:33.706Z,14.67
2019-05-05T15:16:04.137Z,17.13
2019-05-05T15:18:34.592Z,23.53
2019-05-05T15:21:04.278Z,19.30
2019-05-05T15:23:34.477Z,25.93
2019-05-05T15:26:04.647Z,17.83
2019-05-05T15:28:34.244Z,27.23
2019-05-05T15:31:04.210Z,15.50
2019-05-05T15:33:34.111Z,23.97
2019-05-05T15:36:04.434Z,20.43
2019-05-05T15:38:34.819Z,18.07
2019-05-05T15:41:04.806Z,18.20
2019-05-05T15:43:34.509Z,20.73
2019-05-05T15:46:04.584Z,23.10
2019-05-05T15:48:34.648Z,23.27
2019-05-05T15:51:04.407Z,18.40
2019-05-05T15:53:35.066Z,18.57
2019-05-05T15:56:04.805Z,16.67
2019-05-05T15:58:34.467Z,17.90
2019-05-05T16:01:04.037Z,39.07
2019-05-05T16:03:33.551Z,41.07
2019-05-05T16:06:03.830Z,16.33
2019-05-05T16:08:33.970Z,14.03
2019-05-05T16:11:04.082Z,12.90
2019-05-05T16:13:35.351Z,14.63
2019-05-05T16:16:15.340Z,17.03
2019-05-05T16:19:06.313Z,14.07
2019-05-05T16:21:37.470Z,13.73
2019-05-05T16:24:17.691Z,13.60
2019-05-05T16:26:47.260Z,13.17
2019-05-05T16:29:16.829Z,18.90
2019-05-05T16:31:46.454Z,16.70
2019-05-05T16:34:15.950Z,11.63
2019-05-05T16:36:45.513Z,12.67
2019-05-05T16:39:16.421Z,11.73
2019-05-05T16:41:46.159Z,15.13
2019-05-05T16:44:15.894Z,13.47
2019-05-05T16:46:45.635Z,17.47
2019-05-05T16:49:15.207Z,12.27
2019-05-05T16:51:49.357Z,15.87
2019-05-05T16:54:24.230Z,19.43
2019-05-05T16:56:54.901Z,11.93
2019-05-05T16:59:24.407Z,14.73
2019-05-05T17:01:54.208Z,15.90
2019-05-05T17:04:24.386Z,19.93
2019-05-05T17:06:59.237Z,18.67
2019-05-05T17:09:29.249Z,12.93
2019-05-05T17:12:10.732Z,15.13
2019-05-05T17:14:54.638Z,19.63
2019-05-05T17:17:28.614Z,15.73
2019-05-05T17:19:59.860Z,18.20
2019-05-05T17:22:30.991Z,14.87
2019-05-05T17:25:01.537Z,15.73
2019-05-05T17:27:31.298Z,18.87
2019-05-05T17:30:00.832Z,14.27
2019-05-05T17:32:30.529Z,12.37
2019-05-05T17:35:00.092Z,14.50
2019-05-05T17:37:29.960Z,13.30
2019-05-05T17:40:01.094Z,17.80
2019-05-05T17:42:49.634Z,13.50
2019-05-05T17:45:26.713Z,15.43
2019-05-05T17:48:06.993Z,16.23
2019-05-05T17:50:54.601Z,17.27
2019-05-05T17:53:43.630Z,20.67
2019-05-05T17:56:14.072Z,15.60
2019-05-05T17:58:44.471Z,16.13
2019-05-05T18:01:15.476Z,15.13
2019-05-05T18:03:45.193Z,16.10
2019-05-05T18:06:20.789Z,21.27
2019-05-05T18:08:53.798Z,16.90
2019-05-05T18:11:30.993Z,23.33
2019-05-05T18:14:05.267Z,22.33
2019-05-05T18:16:34.688Z,16.23
2019-05-05T18:19:04.551Z,17.43
2019-05-05T18:21:34.816Z,12.57
2019-05-05T18:24:04.845Z,17.37
2019-05-05T18:26:34.382Z,11.47
2019-05-05T18:29:04.034Z,12.70
2019-05-05T18:31:34.013Z,12.70
2019-05-05T18:34:05.285Z,13.23
2019-05-05T18:36:35.050Z,13.60
2019-05-05T18:39:07.540Z,18.60
2019-05-05T18:41:56.433Z,12.13
2019-05-05T18:44:34.979Z,12.53
2019-05-05T18:47:15.747Z,17.57
2019-05-05T18:49:43.747Z,15.77
2019-05-05T18:52:13.989Z,13.77
2019-05-05T18:54:43.851Z,15.90
2019-05-05T18:57:13.874Z,12.33
2019-05-05T18:59:44.728Z,9.13
2019-05-05T19:02:23.923Z,9.07
2019-05-05T19:04:54.922Z,6.90
2019-05-05T19:07:26.237Z,10.87
2019-05-05T19:09:56.997Z,13.80
2019-05-05T19:12:26.782Z,9.87
2019-05-05T19:14:56.316Z,7.60
2019-05-05T19:17:28.547Z,15.20
2019-05-05T19:19:58.893Z,7.87
2019-05-05T19:22:28.541Z,7.63
2019-05-05T19:24:59.849Z,7.37
2019-05-05T19:27:29.427Z,6.03
2019-05-05T19:29:58.985Z,9.50
2019-05-05T19:32:28.453Z,17.10
2019-05-05T19:34:57.945Z,11.53
2019-05-05T19:37:28.558Z,11.03
2019-05-05T19:39:58.056Z,12.30
2019-05-05T19:42:27.616Z,9.57
2019-05-05T19:44:57.227Z,8.33
2019-05-05T19:47:26.646Z,7.90
2019-05-05T19:49:57.897Z,4.50
2019-05-05T19:52:28.838Z,6.10
2019-05-05T19:54:58.682Z,5.07
2019-05-05T19:57:28.363Z,5.67
2019-05-05T19:59:57.925Z,4.13
2019-05-05T20:02:27.538Z,3.83
2019-05-05T20:04:57.041Z,2.30
2019-05-05T20:07:26.478Z,3.60
2019-05-05T20:09:55.979Z,5.03
2019-05-05T20:12:25.585Z,1.90
2019-05-05T20:14:55.361Z,1.77
2019-05-05T20:17:26.555Z,2.80
2019-05-05T20:19:56.155Z,2.77
2019-05-05T20:22:25.710Z,2.70
2019-05-05T20:24:55.216Z,2.97
2019-05-05T20:27:24.701Z,3.50
2019-05-05T20:29:54.189Z,2.37
2019-05-05T20:32:25.353Z,1.10
2019-05-05T20:35:14.900Z,1.40
2019-05-05T20:37:54.123Z,2.77
2019-05-05T20:40:25.416Z,2.87
2019-05-05T20:42:54.915Z,1.50
2019-05-05T20:45:26.095Z,3.77
2019-05-05T20:47:55.578Z,2.73
2019-05-05T20:50:25.139Z,5.17
2019-05-05T20:52:54.730Z,2.20
2019-05-05T20:55:25.899Z,5.23
2019-05-05T20:57:56.720Z,1.37
2019-05-05T21:00:26.298Z,2.70
2019-05-05T21:02:55.883Z,3.33
2019-05-05T21:05:25.443Z,4.43
2019-05-05T21:07:54.911Z,3.67
2019-05-05T21:10:24.425Z,3.10
2019-05-05T21:12:54.505Z,2.63
2019-05-05T21:15:24.697Z,1.77
2019-05-05T21:17:54.462Z,2.83
2019-05-05T21:20:24.198Z,3.13
2019-05-05T21:23:04.585Z,2.23
2019-05-05T21:25:44.385Z,2.80
2019-05-05T21:28:14.630Z,3.23
2019-05-05T21:30:44.260Z,2.23
2019-05-05T21:33:13.778Z,2.77
2019-05-05T21:35:44.074Z,3.13
2019-05-05T21:38:14.232Z,2.33
2019-05-05T21:40:44.141Z,3.80
2019-05-05T21:43:15.367Z,6.87
2019-05-05T21:45:45.135Z,2.17
2019-05-05T21:48:14.630Z,4.23
2019-05-05T21:50:45.863Z,3.23
2019-05-05T21:53:28.443Z,4.90
2019-05-05T21:56:04.196Z,2.73
2019-05-05T21:58:36.040Z,3.97
2019-05-05T22:01:08.062Z,3.10
2019-05-05T22:03:38.990Z,3.93
2019-05-05T22:06:08.653Z,2.70
2019-05-05T22:08:38.358Z,2.93
2019-05-05T22:11:08.467Z,5.50
2019-05-05T22:13:37.956Z,6.80
2019-05-05T22:16:07.441Z,7.90
2019-05-05T22:18:37.081Z,7.00
2019-05-05T22:21:11.080Z,6.03
2019-05-05T22:23:40.536Z,7.03
2019-05-05T22:26:10.019Z,8.17
2019-05-05T22:28:39.441Z,6.93
2019-05-05T22:31:08.997Z,7.73
2019-05-05T22:33:38.449Z,5.97
2019-05-05T22:36:07.946Z,4.50
2019-05-05T22:38:37.578Z,6.07
2019-05-05T22:41:07.068Z,4.93
2019-05-05T22:43:36.625Z,8.40
2019-05-05T22:46:06.183Z,8.10
2019-05-05T22:48:36.949Z,4.93
2019-05-05T22:51:06.476Z,5.20
2019-05-05T22:53:35.961Z,4.00
2019-05-05T22:56:05.521Z,9.10
2019-05-05T22:58:35.015Z,4.80
2019-05-05T23:01:04.567Z,5.23
2019-05-05T23:03:40.355Z,3.07
2019-05-05T23:06:13.671Z,2.40
2019-05-05T23:08:45.275Z,7.90
2019-05-05T23:11:14.877Z,8.00
2019-05-05T23:13:44.475Z,4.17
2019-05-05T23:16:15.695Z,5.67
2019-05-05T23:18:45.293Z,6.13
2019-05-05T23:21:34.469Z,4.23
2019-05-05T23:24:08.508Z,3.27
2019-05-05T23:26:43.768Z,3.63
2019-05-05T23:29:13.760Z,6.17
2019-05-05T23:31:44.509Z,1.83
2019-05-05T23:34:14.685Z,3.50
2019-05-05T23:36:44.517Z,3.30
2019-05-05T23:39:13.985Z,2.87
2019-05-05T23:41:43.499Z,2.93
2019-05-05T23:44:14.388Z,3.10
2019-05-05T23:46:44.254Z,3.90
2019-05-05T23:49:13.912Z,3.93
2019-05-05T23:51:44.106Z,5.50
2019-05-05T23:54:14.033Z,4.60
2019-05-05T23:56:44.102Z,4.50
2019-05-05T23:59:13.721Z,3.33
